sensor_id;sensor_type;location;lat;lon;timestamp;P1;durP1;ratioP1;P2;durP2;ratioP2
42602;SDS011;28233;55.748;48.752;2023-03-14T00:00:09;1.13;;;0.53;;
42602;SDS011;28233;55.748;48.752;2023-03-14T00:02:16;1.77;;;0.63;;
42602;SDS011;28233;55.748;48.752;2023-03-14T00:04:19;2.15;;;1.15;;
42602;SDS011;28233;55.748;48.752;2023-03-14T00:06:40;1.63;;;0.80;;
42602;SDS011;28233;55.748;48.752;2023-03-14T00:09:01;1.10;;;0.60;;
42602;SDS011;28233;55.748;48.752;2023-03-14T00:11:23;2.03;;;0.80;;
42602;SDS011;28233;55.748;48.752;2023-03-14T00:13:48;1.77;;;1.13;;
42602;SDS011;28233;55.748;48.752;2023-03-14T00:16:11;2.13;;;1.10;;
42602;SDS011;28233;55.748;48.752;2023-03-14T00:18:33;1.73;;;1.10;;
42602;SDS011;28233;55.748;48.752;2023-03-14T00:23:18;2.63;;;1.17;;
42602;SDS011;28233;55.748;48.752;2023-03-14T00:25:39;2.17;;;1.10;;
42602;SDS011;28233;55.748;48.752;2023-03-14T00:28:01;1.20;;;0.70;;
42602;SDS011;28233;55.748;48.752;2023-03-14T00:30:22;2.70;;;1.23;;
42602;SDS011;28233;55.748;48.752;2023-03-14T00:32:43;4.57;;;1.77;;
42602;SDS011;28233;55.748;48.752;2023-03-14T00:35:05;3.40;;;1.27;;
42602;SDS011;28233;55.748;48.752;2023-03-14T00:37:26;3.92;;;1.10;;
42602;SDS011;28233;55.748;48.752;2023-03-14T00:44:32;3.93;;;1.30;;
42602;SDS011;28233;55.748;48.752;2023-03-14T00:46:54;2.33;;;1.00;;
42602;SDS011;28233;55.748;48.752;2023-03-14T00:49:16;3.78;;;0.70;;
42602;SDS011;28233;55.748;48.752;2023-03-14T00:51:37;1.48;;;0.80;;
42602;SDS011;28233;55.748;48.752;2023-03-14T00:53:40;2.77;;;1.63;;
42602;SDS011;28233;55.748;48.752;2023-03-14T00:55:43;1.80;;;1.20;;
42602;SDS011;28233;55.748;48.752;2023-03-14T00:57:47;3.57;;;0.97;;
42602;SDS011;28233;55.748;48.752;2023-03-14T00:59:50;2.83;;;1.27;;
42602;SDS011;28233;55.748;48.752;2023-03-14T01:01:53;1.90;;;1.23;;
42602;SDS011;28233;55.748;48.752;2023-03-14T01:03:56;3.50;;;1.23;;
42602;SDS011;28233;55.748;48.752;2023-03-14T01:06:20;2.93;;;1.60;;
42602;SDS011;28233;55.748;48.752;2023-03-14T01:08:23;4.50;;;1.50;;
42602;SDS011;28233;55.748;48.752;2023-03-14T01:10:26;2.03;;;1.10;;
42602;SDS011;28233;55.748;48.752;2023-03-14T01:12:29;2.33;;;0.97;;
42602;SDS011;28233;55.748;48.752;2023-03-14T01:14:31;3.10;;;1.20;;
42602;SDS011;28233;55.748;48.752;2023-03-14T01:16:34;1.90;;;1.30;;
42602;SDS011;28233;55.748;48.752;2023-03-14T01:18:56;1.50;;;1.02;;
42602;SDS011;28233;55.748;48.752;2023-03-14T01:21:22;4.97;;;2.03;;
42602;SDS011;28233;55.748;48.752;2023-03-14T01:23:48;7.67;;;1.57;;
42602;SDS011;28233;55.748;48.752;2023-03-14T01:30:54;3.33;;;1.10;;
42602;SDS011;28233;55.748;48.752;2023-03-14T01:32:57;3.10;;;1.50;;
42602;SDS011;28233;55.748;48.752;2023-03-14T01:34:59;2.67;;;1.33;;
42602;SDS011;28233;55.748;48.752;2023-03-14T01:37:04;2.70;;;1.37;;
42602;SDS011;28233;55.748;48.752;2023-03-14T01:39:07;6.40;;;4.10;;
42602;SDS011;28233;55.748;48.752;2023-03-14T01:41:21;2.60;;;1.37;;
42602;SDS011;28233;55.748;48.752;2023-03-14T01:43:26;4.83;;;1.53;;
42602;SDS011;28233;55.748;48.752;2023-03-14T01:48:10;3.80;;;1.75;;
42602;SDS011;28233;55.748;48.752;2023-03-14T01:50:13;3.10;;;1.83;;
42602;SDS011;28233;55.748;48.752;2023-03-14T01:56:30;2.50;;;1.47;;
42602;SDS011;28233;55.748;48.752;2023-03-14T01:58:33;2.37;;;1.40;;
42602;SDS011;28233;55.748;48.752;2023-03-14T02:00:39;2.53;;;1.50;;
42602;SDS011;28233;55.748;48.752;2023-03-14T02:02:46;3.10;;;1.60;;
42602;SDS011;28233;55.748;48.752;2023-03-14T02:04:52;3.20;;;2.00;;
42602;SDS011;28233;55.748;48.752;2023-03-14T02:07:03;2.87;;;1.70;;
42602;SDS011;28233;55.748;48.752;2023-03-14T02:09:13;3.17;;;1.70;;
42602;SDS011;28233;55.748;48.752;2023-03-14T02:11:17;3.00;;;1.70;;
42602;SDS011;28233;55.748;48.752;2023-03-14T02:13:20;3.10;;;1.43;;
42602;SDS011;28233;55.748;48.752;2023-03-14T02:15:24;4.13;;;1.77;;
42602;SDS011;28233;55.748;48.752;2023-03-14T02:17:27;2.27;;;1.53;;
42602;SDS011;28233;55.748;48.752;2023-03-14T02:19:54;4.77;;;1.40;;
42602;SDS011;28233;55.748;48.752;2023-03-14T02:22:02;3.23;;;1.73;;
42602;SDS011;28233;55.748;48.752;2023-03-14T02:26:23;4.70;;;2.73;;
42602;SDS011;28233;55.748;48.752;2023-03-14T02:28:34;4.95;;;1.88;;
42602;SDS011;28233;55.748;48.752;2023-03-14T02:30:37;6.50;;;2.40;;
42602;SDS011;28233;55.748;48.752;2023-03-14T02:32:41;5.83;;;1.53;;
42602;SDS011;28233;55.748;48.752;2023-03-14T02:34:49;4.83;;;2.20;;
42602;SDS011;28233;55.748;48.752;2023-03-14T02:36:56;2.33;;;1.60;;
42602;SDS011;28233;55.748;48.752;2023-03-14T02:39:14;3.77;;;2.20;;
42602;SDS011;28233;55.748;48.752;2023-03-14T02:45:37;3.93;;;2.30;;
42602;SDS011;28233;55.748;48.752;2023-03-14T02:47:43;2.00;;;1.73;;
42602;SDS011;28233;55.748;48.752;2023-03-14T02:49:49;3.33;;;2.10;;
42602;SDS011;28233;55.748;48.752;2023-03-14T02:51:55;4.50;;;2.40;;
42602;SDS011;28233;55.748;48.752;2023-03-14T02:53:58;3.20;;;2.20;;
42602;SDS011;28233;55.748;48.752;2023-03-14T02:56:01;5.00;;;1.90;;
42602;SDS011;28233;55.748;48.752;2023-03-14T02:58:04;2.73;;;2.20;;
42602;SDS011;28233;55.748;48.752;2023-03-14T03:00:07;4.63;;;1.80;;
42602;SDS011;28233;55.748;48.752;2023-03-14T03:02:10;3.87;;;2.40;;
42602;SDS011;28233;55.748;48.752;2023-03-14T03:04:13;3.13;;;1.80;;
42602;SDS011;28233;55.748;48.752;2023-03-14T03:06:15;3.10;;;2.07;;
42602;SDS011;28233;55.748;48.752;2023-03-14T03:08:19;5.67;;;2.23;;
42602;SDS011;28233;55.748;48.752;2023-03-14T03:10:22;3.93;;;2.50;;
42602;SDS011;28233;55.748;48.752;2023-03-14T03:12:25;3.80;;;2.57;;
42602;SDS011;28233;55.748;48.752;2023-03-14T03:14:28;3.47;;;2.10;;
42602;SDS011;28233;55.748;48.752;2023-03-14T03:16:30;3.70;;;2.07;;
42602;SDS011;28233;55.748;48.752;2023-03-14T03:18:33;3.63;;;2.40;;
42602;SDS011;28233;55.748;48.752;2023-03-14T03:20:36;7.37;;;3.37;;
42602;SDS011;28233;55.748;48.752;2023-03-14T03:22:39;7.67;;;2.53;;
42602;SDS011;28233;55.748;48.752;2023-03-14T03:24:42;3.20;;;2.33;;
42602;SDS011;28233;55.748;48.752;2023-03-14T03:26:46;6.73;;;3.83;;
42602;SDS011;28233;55.748;48.752;2023-03-14T03:28:50;6.80;;;2.83;;
42602;SDS011;28233;55.748;48.752;2023-03-14T03:30:53;5.23;;;2.80;;
42602;SDS011;28233;55.748;48.752;2023-03-14T03:32:56;4.67;;;2.43;;
42602;SDS011;28233;55.748;48.752;2023-03-14T03:34:59;6.27;;;2.90;;
42602;SDS011;28233;55.748;48.752;2023-03-14T03:37:02;3.90;;;2.13;;
42602;SDS011;28233;55.748;48.752;2023-03-14T03:39:05;4.37;;;2.30;;
42602;SDS011;28233;55.748;48.752;2023-03-14T03:41:07;5.27;;;2.10;;
42602;SDS011;28233;55.748;48.752;2023-03-14T03:43:10;5.90;;;2.43;;
42602;SDS011;28233;55.748;48.752;2023-03-14T03:45:13;4.17;;;2.70;;
42602;SDS011;28233;55.748;48.752;2023-03-14T03:47:15;5.17;;;3.60;;
42602;SDS011;28233;55.748;48.752;2023-03-14T03:49:18;4.77;;;2.90;;
42602;SDS011;28233;55.748;48.752;2023-03-14T03:51:21;6.20;;;2.80;;
42602;SDS011;28233;55.748;48.752;2023-03-14T03:53:23;4.23;;;2.40;;
42602;SDS011;28233;55.748;48.752;2023-03-14T03:55:34;3.80;;;2.17;;
42602;SDS011;28233;55.748;48.752;2023-03-14T03:57:37;3.70;;;2.83;;
42602;SDS011;28233;55.748;48.752;2023-03-14T03:59:40;3.47;;;2.30;;
42602;SDS011;28233;55.748;48.752;2023-03-14T04:01:43;4.83;;;2.80;;
42602;SDS011;28233;55.748;48.752;2023-03-14T04:03:46;5.37;;;2.60;;
42602;SDS011;28233;55.748;48.752;2023-03-14T04:05:59;5.97;;;3.37;;
42602;SDS011;28233;55.748;48.752;2023-03-14T04:08:06;4.23;;;2.10;;
42602;SDS011;28233;55.748;48.752;2023-03-14T04:10:09;4.83;;;2.77;;
42602;SDS011;28233;55.748;48.752;2023-03-14T04:12:12;5.47;;;2.40;;
42602;SDS011;28233;55.748;48.752;2023-03-14T04:14:15;3.47;;;2.20;;
42602;SDS011;28233;55.748;48.752;2023-03-14T04:16:22;5.00;;;2.57;;
42602;SDS011;28233;55.748;48.752;2023-03-14T04:18:26;6.03;;;2.30;;
42602;SDS011;28233;55.748;48.752;2023-03-14T04:20:29;6.20;;;2.53;;
42602;SDS011;28233;55.748;48.752;2023-03-14T04:22:32;3.47;;;2.10;;
42602;SDS011;28233;55.748;48.752;2023-03-14T04:24:34;4.63;;;2.53;;
42602;SDS011;28233;55.748;48.752;2023-03-14T04:26:37;4.97;;;2.73;;
42602;SDS011;28233;55.748;48.752;2023-03-14T04:28:40;4.40;;;2.10;;
42602;SDS011;28233;55.748;48.752;2023-03-14T04:30:42;4.47;;;2.58;;
42602;SDS011;28233;55.748;48.752;2023-03-14T04:32:45;3.70;;;2.23;;
42602;SDS011;28233;55.748;48.752;2023-03-14T04:34:48;6.23;;;2.40;;
42602;SDS011;28233;55.748;48.752;2023-03-14T04:36:51;6.07;;;2.27;;
42602;SDS011;28233;55.748;48.752;2023-03-14T04:38:53;3.67;;;2.17;;
42602;SDS011;28233;55.748;48.752;2023-03-14T04:40:56;3.57;;;2.20;;
42602;SDS011;28233;55.748;48.752;2023-03-14T04:42:58;5.93;;;2.70;;
42602;SDS011;28233;55.748;48.752;2023-03-14T04:45:01;3.87;;;2.23;;
42602;SDS011;28233;55.748;48.752;2023-03-14T04:47:04;5.30;;;2.30;;
42602;SDS011;28233;55.748;48.752;2023-03-14T04:49:07;7.37;;;2.40;;
42602;SDS011;28233;55.748;48.752;2023-03-14T04:51:10;4.67;;;2.10;;
42602;SDS011;28233;55.748;48.752;2023-03-14T04:53:13;5.17;;;2.23;;
42602;SDS011;28233;55.748;48.752;2023-03-14T04:55:16;4.07;;;2.00;;
42602;SDS011;28233;55.748;48.752;2023-03-14T04:57:19;5.13;;;2.67;;
42602;SDS011;28233;55.748;48.752;2023-03-14T04:59:21;3.53;;;1.77;;
42602;SDS011;28233;55.748;48.752;2023-03-14T05:01:24;3.63;;;2.10;;
42602;SDS011;28233;55.748;48.752;2023-03-14T05:03:27;4.13;;;2.33;;
42602;SDS011;28233;55.748;48.752;2023-03-14T05:05:30;4.27;;;1.87;;
42602;SDS011;28233;55.748;48.752;2023-03-14T05:07:32;4.03;;;2.13;;
42602;SDS011;28233;55.748;48.752;2023-03-14T05:09:35;4.07;;;2.27;;
42602;SDS011;28233;55.748;48.752;2023-03-14T05:11:37;2.90;;;1.80;;
42602;SDS011;28233;55.748;48.752;2023-03-14T05:13:40;3.95;;;1.88;;
42602;SDS011;28233;55.748;48.752;2023-03-14T05:15:43;6.15;;;2.33;;
42602;SDS011;28233;55.748;48.752;2023-03-14T05:17:45;14.68;;;4.97;;
42602;SDS011;28233;55.748;48.752;2023-03-14T05:19:48;3.75;;;2.15;;
42602;SDS011;28233;55.748;48.752;2023-03-14T05:21:51;3.55;;;1.80;;
42602;SDS011;28233;55.748;48.752;2023-03-14T05:23:54;3.13;;;1.38;;
42602;SDS011;28233;55.748;48.752;2023-03-14T05:25:56;3.17;;;2.30;;
42602;SDS011;28233;55.748;48.752;2023-03-14T05:27:59;3.53;;;2.38;;
42602;SDS011;28233;55.748;48.752;2023-03-14T05:30:03;3.25;;;1.35;;
42602;SDS011;28233;55.748;48.752;2023-03-14T05:32:06;7.82;;;2.33;;
42602;SDS011;28233;55.748;48.752;2023-03-14T05:34:09;3.40;;;1.35;;
42602;SDS011;28233;55.748;48.752;2023-03-14T05:36:11;4.03;;;1.88;;
42602;SDS011;28233;55.748;48.752;2023-03-14T05:38:14;2.90;;;1.98;;
42602;SDS011;28233;55.748;48.752;2023-03-14T05:40:17;6.22;;;1.88;;
42602;SDS011;28233;55.748;48.752;2023-03-14T05:42:20;6.00;;;1.67;;
42602;SDS011;28233;55.748;48.752;2023-03-14T05:44:22;8.35;;;2.35;;
42602;SDS011;28233;55.748;48.752;2023-03-14T05:46:25;3.78;;;2.10;;
42602;SDS011;28233;55.748;48.752;2023-03-14T05:48:28;4.18;;;2.08;;
42602;SDS011;28233;55.748;48.752;2023-03-14T05:50:31;7.13;;;1.98;;
42602;SDS011;28233;55.748;48.752;2023-03-14T05:52:33;4.00;;;2.40;;
42602;SDS011;28233;55.748;48.752;2023-03-14T05:54:36;3.53;;;2.13;;
42602;SDS011;28233;55.748;48.752;2023-03-14T05:56:38;2.55;;;1.33;;
42602;SDS011;28233;55.748;48.752;2023-03-14T05:58:41;5.90;;;1.92;;
42602;SDS011;28233;55.748;48.752;2023-03-14T06:00:44;4.18;;;2.10;;
42602;SDS011;28233;55.748;48.752;2023-03-14T06:02:47;3.25;;;1.88;;
42602;SDS011;28233;55.748;48.752;2023-03-14T06:04:49;2.65;;;1.23;;
42602;SDS011;28233;55.748;48.752;2023-03-14T06:06:52;3.90;;;1.60;;
42602;SDS011;28233;55.748;48.752;2023-03-14T06:08:55;2.22;;;1.30;;
42602;SDS011;28233;55.748;48.752;2023-03-14T06:10:57;3.33;;;2.33;;
42602;SDS011;28233;55.748;48.752;2023-03-14T06:13:00;4.43;;;2.38;;
42602;SDS011;28233;55.748;48.752;2023-03-14T06:15:03;3.17;;;1.60;;
42602;SDS011;28233;55.748;48.752;2023-03-14T06:17:06;2.78;;;1.65;;
42602;SDS011;28233;55.748;48.752;2023-03-14T06:19:09;3.13;;;1.67;;
42602;SDS011;28233;55.748;48.752;2023-03-14T06:21:12;4.03;;;1.75;;
42602;SDS011;28233;55.748;48.752;2023-03-14T06:23:15;3.22;;;1.75;;
42602;SDS011;28233;55.748;48.752;2023-03-14T06:25:18;4.07;;;2.30;;
42602;SDS011;28233;55.748;48.752;2023-03-14T06:27:22;5.57;;;2.08;;
42602;SDS011;28233;55.748;48.752;2023-03-14T06:29:25;3.17;;;1.73;;
42602;SDS011;28233;55.748;48.752;2023-03-14T06:31:31;4.45;;;1.75;;
42602;SDS011;28233;55.748;48.752;2023-03-14T06:33:34;3.72;;;1.40;;
42602;SDS011;28233;55.748;48.752;2023-03-14T06:35:37;1.75;;;1.27;;
42602;SDS011;28233;55.748;48.752;2023-03-14T06:37:40;3.13;;;1.75;;
42602;SDS011;28233;55.748;48.752;2023-03-14T06:39:42;7.50;;;2.42;;
42602;SDS011;28233;55.748;48.752;2023-03-14T06:41:46;2.35;;;1.55;;
42602;SDS011;28233;55.748;48.752;2023-03-14T06:43:49;2.65;;;1.75;;
42602;SDS011;28233;55.748;48.752;2023-03-14T06:45:52;2.88;;;1.75;;
42602;SDS011;28233;55.748;48.752;2023-03-14T06:47:54;3.92;;;2.22;;
42602;SDS011;28233;55.748;48.752;2023-03-14T06:49:57;2.30;;;1.63;;
42602;SDS011;28233;55.748;48.752;2023-03-14T06:52:00;3.30;;;1.75;;
42602;SDS011;28233;55.748;48.752;2023-03-14T06:54:03;2.08;;;1.60;;
42602;SDS011;28233;55.748;48.752;2023-03-14T06:56:05;4.32;;;2.15;;
42602;SDS011;28233;55.748;48.752;2023-03-14T06:58:09;5.38;;;1.77;;
42602;SDS011;28233;55.748;48.752;2023-03-14T07:00:12;9.05;;;1.85;;
42602;SDS011;28233;55.748;48.752;2023-03-14T07:02:16;5.20;;;2.15;;
42602;SDS011;28233;55.748;48.752;2023-03-14T07:04:19;4.97;;;2.00;;
42602;SDS011;28233;55.748;48.752;2023-03-14T07:06:22;4.32;;;1.67;;
42602;SDS011;28233;55.748;48.752;2023-03-14T07:08:24;4.43;;;2.13;;
42602;SDS011;28233;55.748;48.752;2023-03-14T07:10:27;5.35;;;2.70;;
42602;SDS011;28233;55.748;48.752;2023-03-14T07:12:30;2.95;;;1.75;;
42602;SDS011;28233;55.748;48.752;2023-03-14T07:14:33;3.45;;;2.10;;
42602;SDS011;28233;55.748;48.752;2023-03-14T07:16:35;2.50;;;1.90;;
42602;SDS011;28233;55.748;48.752;2023-03-14T07:18:38;6.45;;;2.25;;
42602;SDS011;28233;55.748;48.752;2023-03-14T07:20:41;4.82;;;2.40;;
42602;SDS011;28233;55.748;48.752;2023-03-14T07:22:43;3.60;;;2.33;;
42602;SDS011;28233;55.748;48.752;2023-03-14T07:24:49;4.30;;;1.80;;
42602;SDS011;28233;55.748;48.752;2023-03-14T07:26:52;4.00;;;1.88;;
42602;SDS011;28233;55.748;48.752;2023-03-14T07:28:55;3.42;;;1.90;;
42602;SDS011;28233;55.748;48.752;2023-03-14T07:30:58;3.40;;;1.55;;
42602;SDS011;28233;55.748;48.752;2023-03-14T07:33:02;4.40;;;2.17;;
42602;SDS011;28233;55.748;48.752;2023-03-14T07:35:05;6.60;;;1.75;;
42602;SDS011;28233;55.748;48.752;2023-03-14T07:37:08;1.83;;;1.35;;
42602;SDS011;28233;55.748;48.752;2023-03-14T07:39:11;4.40;;;1.60;;
42602;SDS011;28233;55.748;48.752;2023-03-14T07:41:14;2.75;;;1.92;;
42602;SDS011;28233;55.748;48.752;2023-03-14T07:43:17;4.35;;;1.90;;
42602;SDS011;28233;55.748;48.752;2023-03-14T07:45:20;4.45;;;1.83;;
42602;SDS011;28233;55.748;48.752;2023-03-14T07:47:22;4.93;;;2.22;;
42602;SDS011;28233;55.748;48.752;2023-03-14T07:49:25;5.97;;;1.92;;
42602;SDS011;28233;55.748;48.752;2023-03-14T07:51:28;3.03;;;1.70;;
42602;SDS011;28233;55.748;48.752;2023-03-14T07:53:30;4.93;;;2.00;;
42602;SDS011;28233;55.748;48.752;2023-03-14T07:55:33;2.13;;;1.70;;
42602;SDS011;28233;55.748;48.752;2023-03-14T07:57:36;2.17;;;1.50;;
42602;SDS011;28233;55.748;48.752;2023-03-14T07:59:39;4.45;;;1.40;;
42602;SDS011;28233;55.748;48.752;2023-03-14T08:01:41;2.75;;;2.08;;
42602;SDS011;28233;55.748;48.752;2023-03-14T08:03:44;3.30;;;1.73;;
42602;SDS011;28233;55.748;48.752;2023-03-14T08:05:48;2.90;;;1.60;;
42602;SDS011;28233;55.748;48.752;2023-03-14T08:07:52;5.35;;;2.28;;
42602;SDS011;28233;55.748;48.752;2023-03-14T08:09:55;2.28;;;1.50;;
42602;SDS011;28233;55.748;48.752;2023-03-14T08:11:57;2.25;;;1.27;;
42602;SDS011;28233;55.748;48.752;2023-03-14T08:14:00;6.10;;;1.83;;
42602;SDS011;28233;55.748;48.752;2023-03-14T08:16:03;2.50;;;1.00;;
42602;SDS011;28233;55.748;48.752;2023-03-14T08:18:06;1.55;;;1.00;;
42602;SDS011;28233;55.748;48.752;2023-03-14T08:20:09;2.20;;;1.50;;
42602;SDS011;28233;55.748;48.752;2023-03-14T08:22:13;4.90;;;2.00;;
42602;SDS011;28233;55.748;48.752;2023-03-14T08:24:18;2.70;;;1.30;;
42602;SDS011;28233;55.748;48.752;2023-03-14T08:26:21;3.42;;;1.27;;
42602;SDS011;28233;55.748;48.752;2023-03-14T08:28:24;1.92;;;1.17;;
42602;SDS011;28233;55.748;48.752;2023-03-14T08:30:32;2.17;;;1.05;;
42602;SDS011;28233;55.748;48.752;2023-03-14T08:32:35;3.22;;;1.33;;
42602;SDS011;28233;55.748;48.752;2023-03-14T08:34:38;2.67;;;0.95;;
42602;SDS011;28233;55.748;48.752;2023-03-14T08:36:41;3.08;;;0.70;;
42602;SDS011;28233;55.748;48.752;2023-03-14T08:38:44;6.57;;;0.63;;
42602;SDS011;28233;55.748;48.752;2023-03-14T08:40:47;2.10;;;1.15;;
42602;SDS011;28233;55.748;48.752;2023-03-14T08:42:50;2.45;;;0.82;;
42602;SDS011;28233;55.748;48.752;2023-03-14T08:44:53;1.20;;;0.80;;
42602;SDS011;28233;55.748;48.752;2023-03-14T08:46:55;2.08;;;0.70;;
42602;SDS011;28233;55.748;48.752;2023-03-14T08:48:58;3.85;;;1.20;;
42602;SDS011;28233;55.748;48.752;2023-03-14T08:51:04;2.13;;;1.38;;
42602;SDS011;28233;55.748;48.752;2023-03-14T08:53:12;0.95;;;0.70;;
42602;SDS011;28233;55.748;48.752;2023-03-14T08:55:15;1.65;;;0.82;;
42602;SDS011;28233;55.748;48.752;2023-03-14T08:57:18;1.55;;;1.25;;
42602;SDS011;28233;55.748;48.752;2023-03-14T08:59:21;3.47;;;1.02;;
42602;SDS011;28233;55.748;48.752;2023-03-14T09:01:24;2.92;;;1.05;;
42602;SDS011;28233;55.748;48.752;2023-03-14T09:03:28;4.28;;;2.65;;
42602;SDS011;28233;55.748;48.752;2023-03-14T09:05:32;1.30;;;0.55;;
42602;SDS011;28233;55.748;48.752;2023-03-14T09:07:36;1.35;;;0.63;;
42602;SDS011;28233;55.748;48.752;2023-03-14T09:09:39;2.00;;;0.60;;
42602;SDS011;28233;55.748;48.752;2023-03-14T09:11:42;9.18;;;2.08;;
42602;SDS011;28233;55.748;48.752;2023-03-14T09:13:45;2.63;;;1.50;;
42602;SDS011;28233;55.748;48.752;2023-03-14T09:15:54;1.98;;;1.40;;
42602;SDS011;28233;55.748;48.752;2023-03-14T09:17:59;3.92;;;1.33;;
42602;SDS011;28233;55.748;48.752;2023-03-14T09:20:02;6.18;;;1.52;;
42602;SDS011;28233;55.748;48.752;2023-03-14T09:22:08;3.25;;;1.35;;
42602;SDS011;28233;55.748;48.752;2023-03-14T09:24:11;3.05;;;1.30;;
42602;SDS011;28233;55.748;48.752;2023-03-14T09:26:14;1.50;;;0.50;;
42602;SDS011;28233;55.748;48.752;2023-03-14T09:28:17;1.17;;;0.47;;
42602;SDS011;28233;55.748;48.752;2023-03-14T09:30:20;0.55;;;0.40;;
42602;SDS011;28233;55.748;48.752;2023-03-14T09:32:23;0.95;;;0.55;;
42602;SDS011;28233;55.748;48.752;2023-03-14T09:34:26;1.73;;;0.68;;
42602;SDS011;28233;55.748;48.752;2023-03-14T09:36:30;0.95;;;0.52;;
42602;SDS011;28233;55.748;48.752;2023-03-14T09:38:34;1.48;;;0.65;;
42602;SDS011;28233;55.748;48.752;2023-03-14T09:40:37;1.55;;;0.82;;
42602;SDS011;28233;55.748;48.752;2023-03-14T09:42:42;0.82;;;0.30;;
42602;SDS011;28233;55.748;48.752;2023-03-14T09:44:56;0.93;;;0.50;;
42602;SDS011;28233;55.748;48.752;2023-03-14T09:47:05;1.02;;;0.45;;
42602;SDS011;28233;55.748;48.752;2023-03-14T09:49:31;0.65;;;0.30;;
42602;SDS011;28233;55.748;48.752;2023-03-14T09:51:36;0.82;;;0.50;;
42602;SDS011;28233;55.748;48.752;2023-03-14T09:53:40;1.55;;;0.47;;
42602;SDS011;28233;55.748;48.752;2023-03-14T09:55:48;3.30;;;1.40;;
42602;SDS011;28233;55.748;48.752;2023-03-14T09:57:58;2.67;;;0.43;;
42602;SDS011;28233;55.748;48.752;2023-03-14T10:00:18;1.42;;;1.15;;
42602;SDS011;28233;55.748;48.752;2023-03-14T10:02:32;4.95;;;0.80;;
42602;SDS011;28233;55.748;48.752;2023-03-14T10:04:38;3.70;;;0.93;;
42602;SDS011;28233;55.748;48.752;2023-03-14T10:06:43;4.03;;;1.10;;
42602;SDS011;28233;55.748;48.752;2023-03-14T10:08:46;2.08;;;1.00;;
42602;SDS011;28233;55.748;48.752;2023-03-14T10:10:49;1.67;;;0.90;;
42602;SDS011;28233;55.748;48.752;2023-03-14T10:12:56;2.50;;;0.75;;
42602;SDS011;28233;55.748;48.752;2023-03-14T10:15:03;1.92;;;1.20;;
42602;SDS011;28233;55.748;48.752;2023-03-14T10:17:12;1.52;;;0.93;;
42602;SDS011;28233;55.748;48.752;2023-03-14T10:19:16;6.35;;;1.58;;
42602;SDS011;28233;55.748;48.752;2023-03-14T10:21:21;3.15;;;1.45;;
42602;SDS011;28233;55.748;48.752;2023-03-14T10:23:32;3.22;;;1.80;;
42602;SDS011;28233;55.748;48.752;2023-03-14T10:25:38;1.80;;;1.10;;
42602;SDS011;28233;55.748;48.752;2023-03-14T10:27:43;2.67;;;1.70;;
42602;SDS011;28233;55.748;48.752;2023-03-14T10:29:54;6.47;;;1.42;;
42602;SDS011;28233;55.748;48.752;2023-03-14T10:34:09;5.25;;;1.92;;
42602;SDS011;28233;55.748;48.752;2023-03-14T10:36:24;5.63;;;1.42;;
42602;SDS011;28233;55.748;48.752;2023-03-14T10:38:32;2.15;;;1.30;;
42602;SDS011;28233;55.748;48.752;2023-03-14T10:40:38;2.80;;;1.70;;
42602;SDS011;28233;55.748;48.752;2023-03-14T10:42:42;3.97;;;1.25;;
42602;SDS011;28233;55.748;48.752;2023-03-14T10:44:50;2.03;;;1.20;;
42602;SDS011;28233;55.748;48.752;2023-03-14T10:47:04;3.03;;;1.25;;
42602;SDS011;28233;55.748;48.752;2023-03-14T10:49:14;2.90;;;1.23;;
42602;SDS011;28233;55.748;48.752;2023-03-14T10:51:30;3.08;;;1.60;;
42602;SDS011;28233;55.748;48.752;2023-03-14T10:53:34;2.88;;;1.45;;
42602;SDS011;28233;55.748;48.752;2023-03-14T10:55:45;4.53;;;1.60;;
42602;SDS011;28233;55.748;48.752;2023-03-14T10:57:48;3.78;;;1.55;;
42602;SDS011;28233;55.748;48.752;2023-03-14T10:59:51;3.05;;;1.70;;
42602;SDS011;28233;55.748;48.752;2023-03-14T11:02:10;1.85;;;1.23;;
42602;SDS011;28233;55.748;48.752;2023-03-14T11:04:36;2.67;;;1.80;;
42602;SDS011;28233;55.748;48.752;2023-03-14T11:13:39;2.17;;;1.20;;
42602;SDS011;28233;55.748;48.752;2023-03-14T11:15:50;4.30;;;1.50;;
42602;SDS011;28233;55.748;48.752;2023-03-14T11:18:13;3.00;;;1.20;;
42602;SDS011;28233;55.748;48.752;2023-03-14T11:20:52;1.70;;;1.05;;
42602;SDS011;28233;55.748;48.752;2023-03-14T11:28:30;2.55;;;1.58;;
42602;SDS011;28233;55.748;48.752;2023-03-14T11:30:50;7.05;;;2.00;;
42602;SDS011;28233;55.748;48.752;2023-03-14T11:33:14;8.07;;;1.95;;
42602;SDS011;28233;55.748;48.752;2023-03-14T11:39:47;3.10;;;1.65;;
42602;SDS011;28233;55.748;48.752;2023-03-14T11:42:11;4.03;;;2.30;;
42602;SDS011;28233;55.748;48.752;2023-03-14T11:44:38;4.35;;;2.58;;
42602;SDS011;28233;55.748;48.752;2023-03-14T11:46:43;15.00;;;3.58;;
42602;SDS011;28233;55.748;48.752;2023-03-14T11:49:26;3.20;;;1.75;;
42602;SDS011;28233;55.748;48.752;2023-03-14T11:51:34;6.07;;;2.03;;
42602;SDS011;28233;55.748;48.752;2023-03-14T11:53:47;3.75;;;1.90;;
42602;SDS011;28233;55.748;48.752;2023-03-14T11:55:56;4.30;;;2.40;;
42602;SDS011;28233;55.748;48.752;2023-03-14T11:58:03;3.53;;;1.75;;
42602;SDS011;28233;55.748;48.752;2023-03-14T12:00:19;2.38;;;1.38;;
42602;SDS011;28233;55.748;48.752;2023-03-14T12:02:27;3.97;;;2.10;;
42602;SDS011;28233;55.748;48.752;2023-03-14T12:06:56;3.72;;;2.00;;
42602;SDS011;28233;55.748;48.752;2023-03-14T12:09:03;5.50;;;2.38;;
42602;SDS011;28233;55.748;48.752;2023-03-14T12:11:15;5.38;;;1.67;;
42602;SDS011;28233;55.748;48.752;2023-03-14T12:13:18;4.57;;;1.55;;
42602;SDS011;28233;55.748;48.752;2023-03-14T12:15:21;3.25;;;1.35;;
42602;SDS011;28233;55.748;48.752;2023-03-14T12:19:42;2.58;;;1.42;;
42602;SDS011;28233;55.748;48.752;2023-03-14T12:21:52;3.67;;;1.35;;
42602;SDS011;28233;55.748;48.752;2023-03-14T12:24:17;3.08;;;1.45;;
42602;SDS011;28233;55.748;48.752;2023-03-14T12:26:25;2.30;;;1.38;;
42602;SDS011;28233;55.748;48.752;2023-03-14T12:28:31;3.60;;;1.00;;
42602;SDS011;28233;55.748;48.752;2023-03-14T12:30:37;2.35;;;1.30;;
42602;SDS011;28233;55.748;48.752;2023-03-14T12:32:49;3.65;;;0.90;;
42602;SDS011;28233;55.748;48.752;2023-03-14T12:36:18;1.50;;;0.73;;
42602;SDS011;28233;55.748;48.752;2023-03-14T12:37:45;1.13;;;0.75;;
42602;SDS011;28233;55.748;48.752;2023-03-14T12:42:35;1.60;;;0.93;;
42602;SDS011;28233;55.748;48.752;2023-03-14T12:44:47;1.80;;;0.93;;
42602;SDS011;28233;55.748;48.752;2023-03-14T12:46:51;4.78;;;1.10;;
42602;SDS011;28233;55.748;48.752;2023-03-14T12:51:03;3.00;;;1.23;;
42602;SDS011;28233;55.748;48.752;2023-03-14T12:57:50;2.97;;;1.75;;
42602;SDS011;28233;55.748;48.752;2023-03-14T13:00:02;2.30;;;1.00;;
42602;SDS011;28233;55.748;48.752;2023-03-14T13:04:29;4.22;;;2.15;;
42602;SDS011;28233;55.748;48.752;2023-03-14T13:08:56;2.72;;;1.77;;
42602;SDS011;28233;55.748;48.752;2023-03-14T13:10:59;1.40;;;1.30;;
42602;SDS011;28233;55.748;48.752;2023-03-14T13:15:33;5.07;;;1.75;;
42602;SDS011;28233;55.748;48.752;2023-03-14T13:19:43;2.65;;;1.20;;
42602;SDS011;28233;55.748;48.752;2023-03-14T13:21:51;3.15;;;1.63;;
42602;SDS011;28233;55.748;48.752;2023-03-14T13:24:03;1.67;;;1.05;;
42602;SDS011;28233;55.748;48.752;2023-03-14T13:26:20;3.78;;;1.85;;
42602;SDS011;28233;55.748;48.752;2023-03-14T13:28:24;2.92;;;1.50;;
42602;SDS011;28233;55.748;48.752;2023-03-14T13:30:28;4.65;;;1.40;;
42602;SDS011;28233;55.748;48.752;2023-03-14T13:32:40;1.98;;;1.73;;
42602;SDS011;28233;55.748;48.752;2023-03-14T13:34:46;3.45;;;1.45;;
42602;SDS011;28233;55.748;48.752;2023-03-14T13:36:54;5.70;;;1.80;;